createdAt,value
2019-06-26T00:01:22.864Z,39.68
2019-06-26T00:03:51.531Z,39.16
2019-06-26T00:06:19.973Z,39.09
2019-06-26T00:08:48.602Z,39.01
2019-06-26T00:11:16.899Z,39.41
2019-06-26T00:13:45.225Z,38.97
2019-06-26T00:16:13.592Z,38.81
2019-06-26T00:18:42.293Z,39.58
2019-06-26T00:21:10.924Z,39.31
2019-06-26T00:23:39.321Z,39.55
2019-06-26T00:26:07.635Z,38.60
2019-06-26T00:28:36.159Z,38.70
2019-06-26T00:31:04.481Z,38.83
2019-06-26T00:33:32.779Z,38.73
2019-06-26T00:36:01.101Z,38.52
2019-06-26T00:38:29.798Z,38.60
2019-06-26T00:40:58.190Z,38.80
2019-06-26T00:43:41.469Z,38.29
2019-06-26T00:45:56.611Z,38.65
2019-06-26T00:48:24.905Z,38.92
2019-06-26T00:50:53.361Z,38.54
2019-06-26T00:53:21.659Z,37.78
2019-06-26T00:55:49.979Z,39.21
2019-06-26T00:58:18.527Z,39.33
2019-06-26T01:00:52.725Z,38.51
2019-06-26T01:03:21.090Z,38.54
2019-06-26T01:05:49.453Z,38.65
2019-06-26T01:08:18.214Z,38.50
2019-06-26T01:10:46.542Z,37.75
2019-06-26T01:13:14.859Z,37.76
2019-06-26T01:15:43.498Z,37.36
2019-06-26T01:18:11.950Z,38.06
2019-06-26T01:20:40.316Z,38.28
2019-06-26T01:23:08.611Z,38.55
2019-06-26T01:25:36.930Z,38.01
2019-06-26T01:28:05.308Z,38.06
2019-06-26T01:30:34.168Z,38.42
2019-06-26T01:33:02.579Z,37.83
2019-06-26T01:35:31.058Z,37.27
2019-06-26T01:37:59.335Z,37.65
2019-06-26T01:40:27.731Z,37.45
2019-06-26T01:42:56.426Z,37.01
2019-06-26T01:45:24.741Z,36.14
2019-06-26T01:47:53.126Z,37.23
2019-06-26T01:50:21.781Z,38.30
2019-06-26T01:52:50.082Z,38.66
2019-06-26T01:55:18.751Z,36.81
2019-06-26T01:57:47.435Z,37.36
2019-06-26T02:00:17.344Z,36.83
2019-06-26T02:02:46.057Z,37.92
2019-06-26T02:05:14.727Z,38.00
2019-06-26T02:07:43.040Z,38.62
2019-06-26T02:10:11.673Z,37.77
2019-06-26T02:12:40.014Z,37.42
2019-06-26T02:15:09.449Z,36.44
2019-06-26T02:17:38.292Z,36.13
2019-06-26T02:20:07.355Z,36.84
2019-06-26T02:22:35.694Z,37.39
2019-06-26T02:25:05.445Z,36.94
2019-06-26T02:27:33.803Z,37.34
2019-06-26T02:30:02.136Z,37.44
2019-06-26T02:32:30.496Z,36.60
2019-06-26T02:34:58.840Z,36.57
2019-06-26T02:37:27.534Z,37.03
2019-06-26T02:39:55.861Z,37.07
2019-06-26T02:42:24.552Z,37.25
2019-06-26T02:44:54.550Z,36.96
2019-06-26T02:47:22.911Z,37.12
2019-06-26T02:49:51.225Z,36.27
2019-06-26T02:52:19.547Z,36.37
2019-06-26T02:54:47.850Z,36.09
2019-06-26T02:57:16.171Z,35.88
2019-06-26T02:59:44.548Z,36.49
2019-06-26T03:02:12.919Z,36.39
2019-06-26T03:04:41.628Z,36.02
2019-06-26T03:07:10.315Z,36.39
2019-06-26T03:09:38.608Z,36.57
2019-06-26T03:12:06.924Z,36.21
2019-06-26T03:14:35.450Z,36.08
2019-06-26T03:17:03.769Z,36.46
2019-06-26T03:19:32.137Z,36.50
2019-06-26T03:22:00.460Z,36.39
2019-06-26T03:24:28.830Z,36.01
2019-06-26T03:26:57.263Z,36.22
2019-06-26T03:29:25.601Z,36.41
2019-06-26T03:31:53.918Z,36.63
2019-06-26T03:34:22.249Z,35.97
2019-06-26T03:36:50.553Z,35.70
2019-06-26T03:39:19.147Z,36.04
2019-06-26T03:41:48.390Z,36.30
2019-06-26T03:44:16.694Z,36.21
2019-06-26T03:46:44.989Z,36.55
2019-06-26T03:49:13.311Z,36.61
2019-06-26T03:51:41.612Z,37.59
2019-06-26T03:54:10.289Z,37.11
2019-06-26T03:56:38.656Z,36.86
2019-06-26T03:59:07.026Z,36.96
2019-06-26T04:01:35.364Z,36.93
2019-06-26T04:04:03.730Z,36.81
2019-06-26T04:06:32.403Z,37.03
2019-06-26T04:09:01.101Z,36.35
2019-06-26T04:11:29.420Z,36.21
2019-06-26T04:13:57.723Z,37.02
2019-06-26T04:16:26.043Z,37.21
2019-06-26T04:18:54.712Z,37.40
2019-06-26T04:21:23.056Z,37.45
2019-06-26T04:23:51.382Z,36.88
2019-06-26T04:26:19.729Z,37.87
2019-06-26T04:28:48.052Z,37.74
2019-06-26T04:31:16.754Z,36.99
2019-06-26T04:33:45.959Z,37.00
2019-06-26T04:36:14.343Z,36.71
2019-06-26T04:38:42.667Z,37.20
2019-06-26T04:41:11.079Z,37.23
2019-06-26T04:43:39.472Z,37.23
2019-06-26T04:46:07.851Z,37.56
2019-06-26T04:48:36.631Z,36.95
2019-06-26T04:51:05.371Z,37.20
2019-06-26T04:53:33.744Z,37.29
2019-06-26T04:56:02.133Z,37.78
2019-06-26T04:58:30.421Z,38.01
2019-06-26T05:00:58.734Z,37.56
2019-06-26T05:03:27.041Z,37.08
2019-06-26T05:05:55.424Z,38.20
2019-06-26T05:08:24.091Z,36.32
2019-06-26T05:10:52.491Z,36.88
2019-06-26T05:13:20.786Z,37.03
2019-06-26T05:15:49.111Z,36.93
2019-06-26T05:18:17.844Z,37.61
2019-06-26T05:20:46.331Z,37.55
2019-06-26T05:23:14.642Z,38.00
2019-06-26T05:25:43.387Z,37.88
2019-06-26T05:28:12.193Z,38.52
2019-06-26T05:30:40.860Z,38.57
2019-06-26T05:33:09.162Z,39.23
2019-06-26T05:35:37.465Z,38.44
2019-06-26T05:38:05.793Z,38.46
2019-06-26T05:40:34.105Z,38.71
2019-06-26T05:43:02.909Z,38.07
2019-06-26T05:45:31.343Z,38.36
2019-06-26T05:47:59.664Z,38.09
2019-06-26T05:50:28.406Z,38.89
2019-06-26T05:52:56.846Z,39.16
2019-06-26T05:55:25.219Z,39.59
2019-06-26T05:57:53.585Z,38.26
2019-06-26T06:00:22.265Z,39.59
2019-06-26T06:02:53.697Z,39.43
2019-06-26T06:05:20.677Z,39.40
2019-06-26T06:07:49.366Z,39.85
2019-06-26T06:10:18.169Z,39.59
2019-06-26T06:12:46.534Z,40.21
2019-06-26T06:15:15.835Z,39.70
2019-06-26T06:17:44.192Z,39.98
2019-06-26T06:20:14.233Z,40.01
2019-06-26T06:22:42.810Z,40.93
2019-06-26T06:25:13.279Z,41.00
2019-06-26T06:27:41.578Z,39.92
2019-06-26T06:30:10.683Z,40.00
2019-06-26T06:32:38.997Z,40.86
2019-06-26T06:35:08.073Z,41.54
2019-06-26T06:37:36.489Z,41.04
2019-06-26T06:40:08.470Z,41.06
2019-06-26T06:42:36.803Z,39.68
2019-06-26T06:45:08.386Z,39.89
2019-06-26T06:47:36.709Z,40.66
2019-06-26T06:50:06.486Z,40.21
2019-06-26T06:52:34.817Z,40.98
2019-06-26T06:55:03.978Z,40.64
2019-06-26T06:57:32.339Z,41.38
2019-06-26T07:00:00.976Z,41.17
2019-06-26T07:02:29.257Z,39.13
2019-06-26T07:04:57.563Z,41.02
2019-06-26T07:07:26.180Z,40.67
2019-06-26T07:09:54.498Z,41.77
2019-06-26T07:12:22.797Z,42.27
2019-06-26T07:14:51.167Z,41.10
2019-06-26T07:17:21.324Z,41.60
2019-06-26T07:19:49.510Z,41.60
2019-06-26T07:22:17.819Z,41.76
2019-06-26T07:24:46.147Z,41.57
2019-06-26T07:27:14.502Z,42.18
2019-06-26T07:29:42.834Z,42.29
2019-06-26T07:32:11.436Z,41.89
2019-06-26T07:34:39.755Z,42.40
2019-06-26T07:37:08.504Z,42.35
2019-06-26T07:39:36.828Z,40.92
2019-06-26T07:42:05.199Z,40.92
2019-06-26T07:44:33.700Z,41.38
2019-06-26T07:47:02.090Z,40.46
2019-06-26T07:49:30.581Z,41.78
2019-06-26T07:51:58.907Z,42.80
2019-06-26T07:54:27.310Z,43.56
2019-06-26T07:56:55.610Z,41.35
2019-06-26T07:59:23.928Z,41.56
2019-06-26T08:01:52.243Z,41.92
2019-06-26T08:04:20.557Z,42.27
2019-06-26T08:06:48.940Z,43.01
2019-06-26T08:09:17.679Z,42.96
2019-06-26T08:11:46.005Z,40.37
2019-06-26T08:14:14.374Z,41.81
2019-06-26T08:16:43.024Z,43.25
2019-06-26T08:19:11.327Z,43.77
2019-06-26T08:21:39.627Z,42.39
2019-06-26T08:24:07.953Z,42.14
2019-06-26T08:26:36.319Z,41.51
2019-06-26T08:29:04.726Z,43.24
2019-06-26T08:31:33.011Z,41.15
2019-06-26T08:34:01.327Z,41.71
2019-06-26T08:36:30.080Z,42.30
2019-06-26T08:38:58.777Z,41.64
2019-06-26T08:41:27.457Z,42.89
2019-06-26T08:43:55.785Z,43.45
2019-06-26T08:46:24.432Z,43.64
2019-06-26T08:48:52.759Z,42.11
2019-06-26T08:51:22.522Z,41.43
2019-06-26T08:53:50.880Z,42.35
2019-06-26T08:56:19.487Z,43.53
2019-06-26T08:58:47.781Z,43.84
2019-06-26T09:01:16.513Z,44.06
2019-06-26T09:03:44.833Z,44.59
2019-06-26T09:06:13.524Z,45.40
2019-06-26T09:08:42.214Z,44.17
2019-06-26T09:11:10.624Z,44.57
2019-06-26T09:13:38.915Z,44.37
2019-06-26T09:16:07.246Z,42.77
2019-06-26T09:18:36.372Z,41.78
2019-06-26T09:21:05.148Z,42.65
2019-06-26T09:23:33.445Z,44.00
2019-06-26T09:26:01.768Z,43.96
2019-06-26T09:28:30.510Z,44.65
2019-06-26T09:30:59.187Z,44.24
2019-06-26T09:33:32.015Z,43.79
2019-06-26T09:35:59.327Z,44.10
2019-06-26T09:38:27.701Z,42.60
2019-06-26T09:40:56.043Z,44.00
2019-06-26T09:43:24.362Z,44.23
2019-06-26T09:45:52.803Z,44.99
2019-06-26T09:48:21.135Z,43.68
2019-06-26T09:50:49.419Z,44.37
2019-06-26T09:53:17.803Z,43.61
2019-06-26T09:55:46.111Z,43.81
2019-06-26T09:58:14.450Z,43.21
2019-06-26T10:00:43.038Z,42.53
2019-06-26T10:03:11.399Z,45.58
2019-06-26T10:05:39.899Z,45.62
2019-06-26T10:08:08.491Z,45.71
2019-06-26T10:10:37.189Z,45.96
2019-06-26T10:13:05.558Z,45.35
2019-06-26T10:15:33.943Z,45.39
2019-06-26T10:18:02.236Z,44.71
2019-06-26T10:20:30.619Z,44.01
2019-06-26T10:22:59.303Z,43.89
2019-06-26T10:25:27.697Z,42.93
2019-06-26T10:27:56.179Z,43.64
2019-06-26T10:30:25.060Z,45.12
2019-06-26T10:32:53.429Z,45.25
2019-06-26T10:35:22.236Z,44.21
2019-06-26T10:37:50.626Z,44.38
2019-06-26T10:40:19.330Z,45.40
2019-06-26T10:42:47.998Z,46.15
2019-06-26T10:45:16.382Z,45.32
2019-06-26T10:47:44.690Z,45.79
2019-06-26T10:50:13.645Z,45.36
2019-06-26T10:52:42.036Z,47.21
2019-06-26T10:55:10.914Z,46.49
2019-06-26T10:57:39.367Z,46.75
2019-06-26T11:00:10.106Z,47.51
2019-06-26T11:02:39.052Z,46.79
2019-06-26T11:05:08.205Z,47.71
2019-06-26T11:07:36.796Z,46.07
2019-06-26T11:10:07.909Z,45.40
2019-06-26T11:12:37.278Z,45.64
2019-06-26T11:15:09.856Z,46.98
2019-06-26T11:17:38.639Z,46.43
2019-06-26T11:20:07.912Z,45.90
2019-06-26T11:22:36.557Z,46.91
2019-06-26T11:25:06.885Z,46.45
2019-06-26T11:27:35.665Z,46.32
2019-06-26T11:30:09.729Z,47.48
2019-06-26T11:32:38.130Z,46.69
2019-06-26T11:35:10.757Z,46.65
2019-06-26T11:37:39.161Z,48.14
2019-06-26T11:40:08.006Z,49.20
2019-06-26T11:42:36.781Z,47.30
2019-06-26T11:45:07.359Z,48.31
2019-06-26T11:47:36.122Z,48.45
2019-06-26T11:50:09.963Z,49.49
2019-06-26T11:52:38.905Z,48.86
2019-06-26T11:55:08.515Z,47.43
2019-06-26T11:57:37.358Z,48.71
2019-06-26T12:00:07.881Z,50.38
2019-06-26T12:02:36.662Z,49.75
2019-06-26T12:05:07.019Z,49.15
2019-06-26T12:07:35.399Z,49.11
2019-06-26T12:10:08.505Z,49.86
2019-06-26T12:12:37.285Z,50.03
2019-06-26T12:15:06.662Z,50.58
2019-06-26T12:17:34.974Z,50.17
2019-06-26T12:20:17.737Z,49.83
2019-06-26T12:22:34.354Z,50.28
2019-06-26T12:25:02.849Z,50.28
2019-06-26T12:27:31.538Z,51.04
2019-06-26T12:30:00.244Z,49.01
2019-06-26T12:32:28.705Z,51.10
2019-06-26T12:34:57.001Z,50.48
2019-06-26T12:37:36.913Z,50.83
2019-06-26T12:39:55.584Z,50.64
2019-06-26T12:42:24.007Z,51.95
2019-06-26T12:44:52.585Z,51.98
2019-06-26T12:47:20.965Z,53.24
2019-06-26T12:49:49.632Z,53.50
2019-06-26T12:52:18.019Z,51.98
2019-06-26T12:54:46.322Z,52.37
2019-06-26T12:57:14.700Z,51.74
2019-06-26T12:59:56.639Z,53.77
2019-06-26T13:02:13.490Z,53.20
2019-06-26T13:04:44.635Z,54.72
2019-06-26T13:07:11.975Z,52.26
2019-06-26T13:09:40.823Z,54.22
2019-06-26T13:12:09.120Z,53.83
2019-06-26T13:14:37.471Z,54.51
2019-06-26T13:17:05.770Z,53.72
2019-06-26T13:19:34.069Z,52.78
2019-06-26T13:22:02.794Z,51.99
2019-06-26T13:24:31.154Z,53.25
2019-06-26T13:26:59.413Z,52.97
2019-06-26T13:29:27.710Z,54.87
2019-06-26T13:31:56.101Z,53.73
2019-06-26T13:34:24.411Z,53.21
2019-06-26T13:36:53.796Z,53.34
2019-06-26T13:39:22.238Z,51.34
2019-06-26T13:41:50.916Z,53.22
2019-06-26T13:44:19.212Z,51.15
2019-06-26T13:46:47.555Z,50.67
2019-06-26T13:49:16.736Z,52.85
2019-06-26T13:51:45.336Z,53.52
2019-06-26T13:54:13.643Z,52.97
2019-06-26T13:56:42.282Z,51.37
2019-06-26T13:59:10.581Z,51.35
2019-06-26T14:01:39.252Z,51.10
2019-06-26T14:04:07.558Z,51.58
2019-06-26T14:06:36.326Z,52.45
2019-06-26T14:09:06.695Z,52.17
2019-06-26T14:11:35.442Z,49.72
2019-06-26T14:14:03.842Z,53.95
2019-06-26T14:16:32.153Z,54.40
2019-06-26T14:19:00.481Z,53.60
2019-06-26T14:21:29.069Z,53.06
2019-06-26T14:23:57.399Z,55.30
2019-06-26T14:26:25.781Z,52.33
2019-06-26T14:28:54.245Z,54.47
2019-06-26T14:31:22.591Z,54.90
2019-06-26T14:33:50.964Z,56.38
2019-06-26T14:36:23.007Z,55.25
2019-06-26T14:38:49.302Z,55.59
2019-06-26T14:41:17.633Z,53.79
2019-06-26T14:43:45.944Z,54.54
2019-06-26T14:46:14.628Z,52.49
2019-06-26T14:48:42.918Z,53.46
2019-06-26T14:51:11.324Z,50.66
2019-06-26T14:53:39.978Z,51.59
2019-06-26T14:56:08.672Z,51.65
2019-06-26T14:58:37.065Z,52.88
2019-06-26T15:01:05.447Z,53.28
2019-06-26T15:03:33.783Z,54.76
2019-06-26T15:06:16.053Z,55.63
2019-06-26T15:08:32.211Z,55.77
2019-06-26T15:11:00.509Z,54.50
2019-06-26T15:13:29.189Z,56.78
2019-06-26T15:15:57.555Z,52.94
2019-06-26T15:18:26.255Z,52.10
2019-06-26T15:20:54.837Z,53.33
2019-06-26T15:23:23.136Z,53.69
2019-06-26T15:25:51.478Z,53.93
2019-06-26T15:28:20.090Z,54.32
2019-06-26T15:30:48.406Z,53.78
2019-06-26T15:33:16.699Z,53.82
2019-06-26T15:35:45.021Z,53.81
2019-06-26T15:38:13.326Z,52.22
2019-06-26T15:40:41.657Z,54.63
2019-06-26T15:43:10.085Z,55.76
2019-06-26T15:45:38.755Z,55.46
2019-06-26T15:48:07.085Z,52.71
2019-06-26T15:50:35.653Z,55.12
2019-06-26T15:53:04.042Z,55.35
2019-06-26T15:55:32.681Z,53.61
2019-06-26T15:58:01.062Z,54.02
2019-06-26T16:00:29.355Z,53.57
2019-06-26T16:02:57.685Z,52.76
2019-06-26T16:05:25.990Z,52.79
2019-06-26T16:07:54.307Z,54.77
2019-06-26T16:10:22.676Z,55.18
2019-06-26T16:12:50.998Z,55.71
2019-06-26T16:15:19.751Z,52.66
2019-06-26T16:17:56.228Z,52.09
2019-06-26T16:20:24.519Z,52.34
2019-06-26T16:22:52.992Z,51.29
2019-06-26T16:25:21.359Z,51.76
2019-06-26T16:28:04.314Z,50.21
2019-06-26T16:30:20.689Z,52.38
2019-06-26T16:32:49.098Z,53.88
2019-06-26T16:35:18.375Z,53.24
2019-06-26T16:37:46.780Z,55.16
2019-06-26T16:40:16.680Z,55.52
2019-06-26T16:42:45.004Z,54.23
2019-06-26T16:45:13.675Z,56.59
2019-06-26T16:47:42.043Z,56.44
2019-06-26T16:50:11.207Z,55.81
2019-06-26T16:52:49.023Z,54.38
2019-06-26T16:55:09.822Z,54.45
2019-06-26T16:57:38.221Z,57.41
2019-06-26T17:00:09.967Z,56.74
2019-06-26T17:02:38.251Z,56.83
2019-06-26T17:05:07.299Z,54.95
2019-06-26T17:07:35.947Z,57.93
2019-06-26T17:10:06.788Z,56.30
2019-06-26T17:12:35.135Z,57.55
2019-06-26T17:15:05.404Z,56.07
2019-06-26T17:17:33.717Z,56.10
2019-06-26T17:20:02.153Z,54.74
2019-06-26T17:22:30.451Z,56.00
2019-06-26T17:24:59.119Z,56.99
2019-06-26T17:27:27.426Z,58.28
2019-06-26T17:29:56.120Z,56.73
2019-06-26T17:32:24.415Z,56.32
2019-06-26T17:34:52.736Z,56.43
2019-06-26T17:37:21.531Z,55.43
2019-06-26T17:39:49.855Z,54.42
2019-06-26T17:42:18.154Z,55.79
2019-06-26T17:44:46.888Z,54.70
2019-06-26T17:47:15.262Z,53.60
2019-06-26T17:49:43.628Z,54.82
2019-06-26T17:52:12.338Z,54.30
2019-06-26T17:54:40.645Z,54.57
2019-06-26T17:57:09.263Z,54.49
2019-06-26T17:59:37.546Z,53.34
2019-06-26T18:02:05.960Z,52.99
2019-06-26T18:04:34.856Z,52.69
2019-06-26T18:07:03.308Z,52.17
2019-06-26T18:09:31.647Z,51.81
2019-06-26T18:12:00.012Z,51.05
2019-06-26T18:14:28.340Z,51.68
2019-06-26T18:16:56.642Z,50.85
2019-06-26T18:19:25.825Z,50.14
2019-06-26T18:21:54.123Z,49.84
2019-06-26T18:24:22.443Z,50.76
2019-06-26T18:26:50.738Z,47.30
2019-06-26T18:29:19.095Z,48.06
2019-06-26T18:31:47.687Z,48.66
2019-06-26T18:34:16.037Z,48.46
2019-06-26T18:36:47.222Z,47.75
2019-06-26T18:39:15.624Z,47.65
2019-06-26T18:41:44.279Z,47.84
2019-06-26T18:44:12.988Z,46.90
2019-06-26T18:46:41.283Z,45.77
2019-06-26T18:49:09.598Z,45.53
2019-06-26T18:51:37.984Z,45.74
2019-06-26T18:54:06.708Z,47.02
2019-06-26T18:56:35.015Z,46.85
2019-06-26T18:59:03.327Z,46.60
2019-06-26T19:01:31.685Z,46.39
2019-06-26T19:03:59.988Z,45.50
2019-06-26T19:06:28.388Z,46.54
2019-06-26T19:08:56.977Z,45.01
2019-06-26T19:11:25.372Z,46.37
2019-06-26T19:13:53.968Z,46.61
2019-06-26T19:16:22.344Z,46.15
2019-06-26T19:18:50.828Z,44.95
2019-06-26T19:21:19.136Z,43.36
2019-06-26T19:23:47.522Z,45.56
2019-06-26T19:26:16.188Z,45.35
2019-06-26T19:28:45.330Z,45.19
2019-06-26T19:31:13.648Z,44.56
2019-06-26T19:33:45.449Z,45.24
2019-06-26T19:36:12.189Z,43.74
2019-06-26T19:38:40.569Z,44.00
2019-06-26T19:41:08.957Z,45.28
2019-06-26T19:43:37.277Z,44.30
2019-06-26T19:46:05.711Z,45.43
2019-06-26T19:48:34.034Z,45.67
2019-06-26T19:51:02.447Z,42.73
2019-06-26T19:53:30.757Z,44.59
2019-06-26T19:55:59.138Z,44.55
2019-06-26T19:58:27.609Z,42.75
2019-06-26T20:00:56.288Z,44.21
2019-06-26T20:03:24.665Z,45.10
2019-06-26T20:05:53.061Z,44.96
2019-06-26T20:08:21.435Z,44.17
2019-06-26T20:10:49.860Z,44.85
2019-06-26T20:13:18.288Z,44.68
2019-06-26T20:15:46.593Z,43.92
2019-06-26T20:18:14.915Z,43.30
2019-06-26T20:20:43.222Z,43.61
2019-06-26T20:23:11.567Z,44.83
2019-06-26T20:25:42.472Z,44.47
2019-06-26T20:28:10.791Z,44.69
2019-06-26T20:30:39.090Z,44.13
2019-06-26T20:33:07.418Z,44.41
2019-06-26T20:35:38.778Z,44.61
2019-06-26T20:38:05.739Z,43.61
2019-06-26T20:40:34.136Z,42.36
2019-06-26T20:43:02.703Z,43.13
2019-06-26T20:45:31.027Z,43.83
2019-06-26T20:47:59.637Z,43.64
2019-06-26T20:50:27.950Z,42.57
2019-06-26T20:52:56.261Z,43.48
2019-06-26T20:55:24.979Z,42.98
2019-06-26T20:57:53.665Z,41.36
2019-06-26T21:00:22.658Z,42.59
2019-06-26T21:02:54.122Z,43.05
2019-06-26T21:05:21.479Z,43.52
2019-06-26T21:07:50.165Z,43.11
2019-06-26T21:10:18.855Z,43.74
2019-06-26T21:12:47.184Z,43.71
2019-06-26T21:15:15.502Z,42.58
2019-06-26T21:17:43.886Z,42.05
2019-06-26T21:20:12.484Z,42.37
2019-06-26T21:22:40.802Z,42.11
2019-06-26T21:25:18.561Z,42.11
2019-06-26T21:27:39.716Z,41.60
2019-06-26T21:30:08.479Z,41.56
2019-06-26T21:32:36.843Z,41.36
2019-06-26T21:35:05.646Z,41.01
2019-06-26T21:37:34.046Z,40.85
2019-06-26T21:40:02.497Z,40.84
2019-06-26T21:42:31.205Z,40.00
2019-06-26T21:44:59.500Z,40.18
2019-06-26T21:47:27.834Z,40.30
2019-06-26T21:49:56.445Z,40.71
2019-06-26T21:52:24.842Z,41.53
2019-06-26T21:54:53.139Z,41.11
2019-06-26T21:57:21.456Z,40.86
2019-06-26T21:59:49.766Z,41.51
2019-06-26T22:02:18.096Z,41.98
2019-06-26T22:04:49.085Z,42.42
2019-06-26T22:07:17.817Z,42.58
2019-06-26T22:09:46.115Z,42.45
2019-06-26T22:12:14.449Z,42.90
2019-06-26T22:14:43.025Z,41.40
2019-06-26T22:17:11.423Z,40.85
2019-06-26T22:19:39.824Z,39.10
2019-06-26T22:22:08.482Z,39.10
2019-06-26T22:24:36.852Z,39.03
2019-06-26T22:27:05.555Z,39.40
2019-06-26T22:29:33.926Z,39.22
2019-06-26T22:32:02.340Z,39.96
2019-06-26T22:34:30.997Z,40.82
2019-06-26T22:36:59.341Z,40.84
2019-06-26T22:39:27.708Z,40.47
2019-06-26T22:41:56.010Z,38.86
2019-06-26T22:44:24.337Z,39.96
2019-06-26T22:46:52.674Z,40.54
2019-06-26T22:49:21.427Z,38.88
2019-06-26T22:51:50.194Z,39.12
2019-06-26T22:54:19.963Z,40.37
2019-06-26T22:56:48.845Z,41.00
2019-06-26T22:59:17.186Z,41.41
2019-06-26T23:01:45.476Z,42.18
2019-06-26T23:04:13.878Z,41.72
2019-06-26T23:06:42.632Z,41.53
2019-06-26T23:09:11.316Z,40.02
2019-06-26T23:11:39.772Z,38.43
2019-06-26T23:14:08.556Z,39.36
2019-06-26T23:16:36.996Z,40.19
2019-06-26T23:19:05.371Z,40.72
2019-06-26T23:21:34.063Z,40.20
2019-06-26T23:24:02.555Z,40.86
2019-06-26T23:26:30.905Z,41.14
2019-06-26T23:28:59.277Z,40.86
2019-06-26T23:31:27.668Z,40.44
2019-06-26T23:33:56.053Z,40.61
2019-06-26T23:36:24.378Z,40.25
2019-06-26T23:38:52.710Z,40.53
2019-06-26T23:41:21.032Z,41.19
2019-06-26T23:43:49.405Z,40.50
2019-06-26T23:46:18.082Z,39.20
2019-06-26T23:48:46.772Z,39.07
2019-06-26T23:51:15.074Z,38.48
2019-06-26T23:53:43.412Z,39.70
2019-06-26T23:56:11.794Z,39.60
2019-06-26T23:58:40.170Z,39.79
